createdAt,value
2017-09-30T00:00:11.572Z,21.95
2017-09-30T00:02:39.088Z,20.45
2017-09-30T00:05:06.608Z,20.75
2017-09-30T00:07:34.138Z,21.48
2017-09-30T00:10:01.660Z,20.73
2017-09-30T00:12:29.184Z,19.50
2017-09-30T00:14:56.694Z,20.58
2017-09-30T00:17:24.198Z,22.42
2017-09-30T00:19:51.728Z,21.00
2017-09-30T00:22:20.073Z,23.15
2017-09-30T00:24:47.592Z,21.00
2017-09-30T00:27:15.156Z,22.10
2017-09-30T00:29:42.660Z,21.95
2017-09-30T00:32:10.170Z,19.77
2017-09-30T00:34:37.688Z,21.33
2017-09-30T00:37:05.978Z,21.27
2017-09-30T00:39:34.268Z,20.30
2017-09-30T00:42:01.806Z,23.60
2017-09-30T00:44:29.326Z,20.65
2017-09-30T00:46:56.840Z,26.60
2017-09-30T00:49:24.358Z,23.10
2017-09-30T00:51:51.865Z,20.40
2017-09-30T00:54:19.388Z,22.90
2017-09-30T00:56:46.889Z,25.77
2017-09-30T00:59:14.428Z,23.00
2017-09-30T01:01:41.943Z,21.10
2017-09-30T01:04:09.449Z,21.20
2017-09-30T01:06:37.746Z,22.15
2017-09-30T01:09:06.112Z,22.77
2017-09-30T01:11:33.646Z,23.70
2017-09-30T01:14:01.159Z,23.75
2017-09-30T01:16:28.683Z,23.02
2017-09-30T01:18:56.211Z,24.95
2017-09-30T01:21:23.784Z,25.20
2017-09-30T01:23:51.303Z,23.02
2017-09-30T01:26:18.837Z,24.10
2017-09-30T01:28:46.354Z,23.23
2017-09-30T01:31:13.869Z,22.75
2017-09-30T01:33:41.392Z,26.17
2017-09-30T01:36:09.707Z,21.98
2017-09-30T01:38:37.229Z,24.30
2017-09-30T01:41:04.731Z,27.15
2017-09-30T01:43:32.279Z,24.65
2017-09-30T01:45:59.809Z,25.92
2017-09-30T01:48:27.316Z,23.75
2017-09-30T01:50:54.817Z,23.25
2017-09-30T01:53:22.339Z,23.77
2017-09-30T01:55:49.850Z,25.45
2017-09-30T01:58:17.360Z,25.83
2017-09-30T02:00:44.878Z,27.83
2017-09-30T02:03:12.391Z,25.70
2017-09-30T02:05:39.900Z,25.12
2017-09-30T02:08:07.417Z,32.08
2017-09-30T02:10:34.924Z,27.45
2017-09-30T02:13:02.428Z,25.50
2017-09-30T02:15:29.961Z,26.35
2017-09-30T02:17:57.556Z,29.95
2017-09-30T02:20:25.059Z,25.17
2017-09-30T02:22:52.606Z,25.58
2017-09-30T02:25:20.933Z,27.05
2017-09-30T02:27:48.433Z,27.05
2017-09-30T02:30:16.731Z,27.33
2017-09-30T02:32:44.246Z,27.35
2017-09-30T02:35:11.758Z,26.23
2017-09-30T02:37:39.294Z,25.65
2017-09-30T02:40:07.562Z,27.45
2017-09-30T02:42:35.106Z,26.50
2017-09-30T02:45:02.615Z,25.58
2017-09-30T02:47:30.131Z,28.62
2017-09-30T02:49:57.646Z,27.23
2017-09-30T02:52:25.162Z,28.83
2017-09-30T02:54:53.456Z,25.37
2017-09-30T02:57:20.978Z,26.15
2017-09-30T02:59:48.487Z,26.23
2017-09-30T03:02:15.995Z,26.33
2017-09-30T03:04:43.504Z,29.30
2017-09-30T03:07:11.007Z,30.67
2017-09-30T03:09:38.513Z,27.55
2017-09-30T03:12:06.037Z,28.95
2017-09-30T03:14:33.554Z,30.62
2017-09-30T03:17:01.072Z,36.83
2017-09-30T03:19:28.590Z,32.17
2017-09-30T03:21:56.131Z,29.85
2017-09-30T03:24:23.649Z,31.73
2017-09-30T03:26:51.934Z,26.55
2017-09-30T03:29:19.558Z,29.95
2017-09-30T03:31:47.075Z,26.80
2017-09-30T03:34:14.574Z,27.83
2017-09-30T03:36:42.096Z,28.00
2017-09-30T03:39:09.614Z,30.37
2017-09-30T03:41:37.113Z,32.13
2017-09-30T03:44:04.683Z,29.25
2017-09-30T03:46:32.278Z,30.02
2017-09-30T03:48:59.799Z,30.12
2017-09-30T03:51:27.345Z,30.37
2017-09-30T03:53:54.856Z,28.87
2017-09-30T03:56:22.373Z,29.73
2017-09-30T03:58:49.904Z,30.40
2017-09-30T04:01:17.771Z,28.62
2017-09-30T04:03:45.291Z,25.88
2017-09-30T04:06:12.816Z,28.55
2017-09-30T04:08:40.339Z,31.23
2017-09-30T04:11:07.916Z,33.80
2017-09-30T04:13:36.198Z,28.60
2017-09-30T04:16:03.737Z,29.73
2017-09-30T04:18:31.244Z,30.23
2017-09-30T04:20:58.781Z,28.17
2017-09-30T04:23:26.309Z,27.87
2017-09-30T04:25:53.818Z,29.77
2017-09-30T04:28:21.342Z,30.90
2017-09-30T04:30:49.625Z,28.95
2017-09-30T04:33:17.907Z,32.40
2017-09-30T04:35:46.187Z,31.90
2017-09-30T04:38:13.704Z,30.25
2017-09-30T04:40:41.251Z,29.55
2017-09-30T04:43:08.747Z,33.42
2017-09-30T04:45:37.034Z,31.75
2017-09-30T04:48:05.319Z,30.12
2017-09-30T04:50:32.841Z,29.65
2017-09-30T04:53:00.355Z,30.55
2017-09-30T04:55:27.855Z,32.83
2017-09-30T04:57:55.365Z,31.20
2017-09-30T05:00:22.879Z,32.10
2017-09-30T05:02:50.395Z,30.88
2017-09-30T05:05:17.936Z,33.67
2017-09-30T05:07:45.501Z,31.33
2017-09-30T05:10:13.037Z,29.87
2017-09-30T05:12:41.333Z,32.28
2017-09-30T05:15:08.850Z,32.90
2017-09-30T05:17:36.351Z,33.55
2017-09-30T05:20:03.871Z,31.30
2017-09-30T05:22:31.395Z,32.28
2017-09-30T05:24:58.908Z,31.80
2017-09-30T05:27:26.421Z,31.73
2017-09-30T05:29:53.924Z,31.33
2017-09-30T05:32:22.211Z,31.40
2017-09-30T05:34:50.599Z,33.58
2017-09-30T05:37:18.125Z,33.75
2017-09-30T05:39:45.669Z,33.38
2017-09-30T05:42:13.186Z,32.63
2017-09-30T05:44:40.779Z,34.42
2017-09-30T05:47:08.288Z,32.15
2017-09-30T05:49:35.822Z,30.48
2017-09-30T05:52:03.339Z,31.30
2017-09-30T05:54:30.987Z,32.55
2017-09-30T05:56:58.513Z,31.30
2017-09-30T05:59:26.024Z,30.15
2017-09-30T06:01:53.532Z,31.67
2017-09-30T06:04:21.031Z,37.53
2017-09-30T06:06:48.552Z,30.80
2017-09-30T06:09:16.082Z,29.42
2017-09-30T06:11:43.617Z,30.90
2017-09-30T06:14:11.116Z,33.40
2017-09-30T06:16:38.614Z,31.05
2017-09-30T06:19:06.118Z,30.65
2017-09-30T06:21:34.413Z,31.25
2017-09-30T06:24:01.927Z,32.05
2017-09-30T06:26:29.449Z,30.37
2017-09-30T06:28:56.965Z,29.90
2017-09-30T06:31:24.742Z,28.62
2017-09-30T06:33:52.294Z,31.87
2017-09-30T06:36:19.876Z,29.52
2017-09-30T06:38:47.411Z,30.80
2017-09-30T06:41:14.980Z,34.75
2017-09-30T06:43:42.498Z,32.05
2017-09-30T06:46:10.081Z,31.52
2017-09-30T06:48:37.640Z,30.67
2017-09-30T06:51:05.155Z,29.25
2017-09-30T06:53:33.490Z,33.80
2017-09-30T06:56:01.016Z,38.53
2017-09-30T06:58:28.529Z,30.48
2017-09-30T07:00:56.815Z,29.52
2017-09-30T07:03:24.339Z,31.23
2017-09-30T07:05:51.886Z,30.62
2017-09-30T07:08:19.414Z,27.15
2017-09-30T07:10:47.048Z,27.35
2017-09-30T07:13:14.571Z,35.70
2017-09-30T07:15:42.092Z,31.40
2017-09-30T07:18:10.358Z,30.58
2017-09-30T07:20:37.924Z,29.83
2017-09-30T07:23:06.223Z,33.17
2017-09-30T07:25:33.755Z,28.92
2017-09-30T07:28:02.733Z,30.58
2017-09-30T07:30:30.290Z,24.00
2017-09-30T07:32:58.026Z,26.67
2017-09-30T07:35:25.558Z,29.65
2017-09-30T07:37:53.126Z,27.98
2017-09-30T07:40:20.669Z,29.70
2017-09-30T07:42:48.954Z,26.08
2017-09-30T07:45:16.485Z,25.50
2017-09-30T07:47:45.521Z,24.45
2017-09-30T07:50:13.044Z,25.92
2017-09-30T07:52:40.558Z,25.80
2017-09-30T07:55:08.088Z,24.42
2017-09-30T07:57:35.605Z,26.30
2017-09-30T08:00:03.265Z,23.83
2017-09-30T08:02:30.785Z,24.23
2017-09-30T08:04:58.341Z,23.48
2017-09-30T08:07:25.860Z,23.77
2017-09-30T08:09:53.373Z,25.73
2017-09-30T08:12:20.917Z,25.85
2017-09-30T08:14:48.455Z,26.70
2017-09-30T08:17:16.734Z,23.27
2017-09-30T08:19:44.254Z,25.08
2017-09-30T08:22:11.778Z,25.40
2017-09-30T08:24:39.335Z,24.52
2017-09-30T08:27:06.869Z,25.52
2017-09-30T08:29:35.154Z,20.62
2017-09-30T08:32:02.659Z,19.98
2017-09-30T08:34:30.177Z,22.50
2017-09-30T08:36:57.769Z,19.52
2017-09-30T08:39:25.356Z,19.60
2017-09-30T08:41:52.876Z,21.92
2017-09-30T08:44:20.408Z,19.30
2017-09-30T08:46:47.967Z,21.67
2017-09-30T08:49:16.260Z,21.48
2017-09-30T08:51:43.863Z,20.25
2017-09-30T08:54:11.414Z,19.55
2017-09-30T08:56:38.935Z,19.05
2017-09-30T08:59:06.492Z,18.87
2017-09-30T09:01:34.052Z,17.10
2017-09-30T09:04:01.570Z,17.37
2017-09-30T09:06:29.123Z,18.62
2017-09-30T09:08:56.697Z,18.80
2017-09-30T09:11:24.230Z,18.95
2017-09-30T09:13:51.757Z,18.02
2017-09-30T09:16:19.326Z,19.00
2017-09-30T09:18:46.876Z,19.80
2017-09-30T09:21:14.476Z,19.30
2017-09-30T09:23:41.994Z,17.90
2017-09-30T09:26:09.557Z,17.80
2017-09-30T09:28:37.091Z,17.25
2017-09-30T09:31:04.632Z,17.00
2017-09-30T09:33:32.152Z,16.85
2017-09-30T09:35:59.701Z,15.20
2017-09-30T09:38:27.217Z,15.38
2017-09-30T09:40:54.765Z,15.68
2017-09-30T09:43:22.300Z,14.77
2017-09-30T09:45:49.834Z,15.55
2017-09-30T09:48:17.354Z,16.80
2017-09-30T09:50:44.876Z,13.93
2017-09-30T09:53:12.707Z,17.73
2017-09-30T09:55:40.252Z,15.50
2017-09-30T09:58:08.524Z,18.30
2017-09-30T10:00:36.199Z,18.42
2017-09-30T10:03:04.482Z,16.10
2017-09-30T10:05:32.768Z,15.63
2017-09-30T10:08:01.072Z,16.10
2017-09-30T10:10:28.585Z,16.65
2017-09-30T10:12:56.098Z,15.35
2017-09-30T10:15:23.938Z,14.70
2017-09-30T10:17:51.460Z,14.68
2017-09-30T10:20:19.077Z,13.10
2017-09-30T10:22:46.577Z,13.43
2017-09-30T10:25:14.117Z,13.32
2017-09-30T10:27:41.643Z,11.75
2017-09-30T10:30:09.153Z,12.73
2017-09-30T10:32:36.678Z,10.80
2017-09-30T10:35:04.178Z,10.35
2017-09-30T10:37:31.698Z,9.87
2017-09-30T10:39:59.340Z,9.67
2017-09-30T10:42:26.903Z,9.50
2017-09-30T10:44:54.406Z,9.90
2017-09-30T10:47:22.071Z,10.50
2017-09-30T10:49:49.586Z,9.57
2017-09-30T10:52:17.178Z,11.30
2017-09-30T10:54:44.711Z,10.33
2017-09-30T10:57:12.272Z,13.93
2017-09-30T10:59:40.015Z,10.20
2017-09-30T11:02:07.568Z,10.80
2017-09-30T11:04:35.094Z,11.37
2017-09-30T11:07:02.612Z,9.97
2017-09-30T11:09:30.127Z,11.17
2017-09-30T11:11:58.436Z,13.13
2017-09-30T11:14:26.043Z,11.10
2017-09-30T11:16:53.581Z,9.93
2017-09-30T11:19:21.192Z,9.83
2017-09-30T11:21:48.704Z,9.93
2017-09-30T11:24:16.239Z,10.10
2017-09-30T11:26:43.913Z,9.27
2017-09-30T11:29:11.614Z,8.60
2017-09-30T11:31:39.129Z,9.10
2017-09-30T11:34:07.013Z,9.63
2017-09-30T11:36:34.587Z,9.33
2017-09-30T11:39:02.082Z,9.50
2017-09-30T11:41:30.368Z,8.47
2017-09-30T11:43:59.369Z,7.83
2017-09-30T11:46:26.986Z,9.80
2017-09-30T11:48:54.534Z,9.03
2017-09-30T11:51:22.861Z,8.20
2017-09-30T11:53:50.411Z,8.80
2017-09-30T11:56:17.911Z,8.27
2017-09-30T11:58:45.435Z,8.70
2017-09-30T12:01:13.711Z,8.93
2017-09-30T12:03:42.073Z,9.27
2017-09-30T12:06:09.582Z,8.67
2017-09-30T12:08:37.082Z,8.00
2017-09-30T12:11:04.610Z,11.83
2017-09-30T12:13:32.359Z,8.20
2017-09-30T12:15:59.854Z,7.57
2017-09-30T12:18:27.383Z,7.97
2017-09-30T12:20:55.016Z,8.23
2017-09-30T12:23:22.536Z,9.10
2017-09-30T12:25:50.062Z,8.90
2017-09-30T12:28:17.591Z,10.40
2017-09-30T12:30:45.882Z,8.35
2017-09-30T12:33:13.392Z,9.00
2017-09-30T12:35:40.924Z,11.02
2017-09-30T12:38:08.437Z,10.32
2017-09-30T12:40:36.720Z,9.30
2017-09-30T12:43:05.313Z,8.55
2017-09-30T12:45:32.821Z,8.60
2017-09-30T12:48:00.340Z,9.15
2017-09-30T12:50:27.862Z,8.00
2017-09-30T12:52:55.378Z,9.32
2017-09-30T12:55:22.915Z,9.02
2017-09-30T12:57:50.428Z,9.25
2017-09-30T13:00:17.960Z,8.18
2017-09-30T13:02:45.464Z,8.15
2017-09-30T13:05:13.120Z,10.55
2017-09-30T13:07:40.632Z,10.20
2017-09-30T13:10:08.181Z,16.87
2017-09-30T13:12:35.688Z,9.45
2017-09-30T13:15:03.207Z,9.00
2017-09-30T13:17:30.731Z,8.57
2017-09-30T13:19:58.249Z,7.70
2017-09-30T13:22:25.765Z,8.15
2017-09-30T13:24:54.035Z,9.00
2017-09-30T13:27:22.307Z,14.80
2017-09-30T13:29:50.595Z,9.27
2017-09-30T13:32:18.866Z,9.48
2017-09-30T13:34:47.182Z,9.35
2017-09-30T13:37:14.714Z,7.37
2017-09-30T13:39:42.274Z,9.80
2017-09-30T13:42:09.804Z,8.20
2017-09-30T13:44:37.328Z,9.15
2017-09-30T13:47:04.843Z,10.50
2017-09-30T13:49:33.121Z,12.02
2017-09-30T13:52:01.436Z,9.65
2017-09-30T13:54:28.987Z,9.13
2017-09-30T13:56:56.493Z,8.25
2017-09-30T13:59:24.034Z,9.10
2017-09-30T14:01:51.540Z,8.15
2017-09-30T14:04:19.093Z,8.82
2017-09-30T14:06:47.399Z,10.40
2017-09-30T14:09:14.933Z,9.10
2017-09-30T14:11:42.479Z,10.00
2017-09-30T14:14:10.057Z,9.15
2017-09-30T14:16:37.577Z,7.95
2017-09-30T14:19:05.104Z,7.93
2017-09-30T14:21:32.611Z,12.45
2017-09-30T14:24:00.107Z,8.98
2017-09-30T14:26:27.654Z,10.50
2017-09-30T14:28:55.939Z,9.30
2017-09-30T14:31:23.434Z,8.60
2017-09-30T14:33:50.935Z,7.22
2017-09-30T14:36:18.476Z,7.00
2017-09-30T14:38:45.984Z,9.88
2017-09-30T14:41:13.581Z,9.32
2017-09-30T14:43:41.859Z,8.93
2017-09-30T14:46:09.394Z,11.60
2017-09-30T14:48:36.947Z,8.32
2017-09-30T14:51:04.507Z,6.78
2017-09-30T14:53:32.071Z,8.45
2017-09-30T14:56:00.288Z,9.80
2017-09-30T14:58:27.916Z,8.73
2017-09-30T15:00:55.437Z,7.93
2017-09-30T15:03:22.985Z,11.50
2017-09-30T15:05:51.304Z,10.27
2017-09-30T15:08:18.837Z,8.35
2017-09-30T15:10:46.472Z,7.70
2017-09-30T15:13:14.066Z,9.10
2017-09-30T15:15:42.342Z,11.02
2017-09-30T15:18:09.971Z,12.32
2017-09-30T15:20:37.475Z,8.55
2017-09-30T15:23:05.009Z,9.57
2017-09-30T15:25:32.524Z,8.23
2017-09-30T15:28:00.029Z,9.10
2017-09-30T15:30:28.754Z,9.52
2017-09-30T15:32:56.267Z,9.52
2017-09-30T15:35:23.788Z,9.75
2017-09-30T15:37:51.275Z,9.20
2017-09-30T15:40:19.578Z,12.02
2017-09-30T15:42:47.872Z,11.02
2017-09-30T15:45:15.374Z,11.25
2017-09-30T15:47:42.968Z,13.18
2017-09-30T15:50:11.283Z,9.15
2017-09-30T15:52:38.814Z,11.65
2017-09-30T15:55:07.129Z,8.65
2017-09-30T15:57:34.794Z,11.02
2017-09-30T16:00:02.340Z,8.60
2017-09-30T16:02:29.838Z,10.10
2017-09-30T16:04:57.366Z,10.68
2017-09-30T16:07:24.897Z,15.43
2017-09-30T16:09:52.424Z,10.63
2017-09-30T16:12:19.933Z,10.85
2017-09-30T16:14:47.450Z,11.07
2017-09-30T16:17:15.024Z,11.50
2017-09-30T16:19:42.531Z,10.20
2017-09-30T16:22:10.040Z,11.70
2017-09-30T16:24:38.358Z,13.10
2017-09-30T16:27:05.908Z,12.73
2017-09-30T16:29:33.516Z,12.40
2017-09-30T16:32:01.074Z,14.20
2017-09-30T16:34:28.707Z,13.93
2017-09-30T16:36:56.254Z,13.13
2017-09-30T16:39:23.853Z,13.00
2017-09-30T16:41:51.371Z,14.02
2017-09-30T16:44:18.960Z,13.65
2017-09-30T16:46:46.533Z,13.70
2017-09-30T16:49:14.040Z,14.60
2017-09-30T16:51:49.498Z,14.23
2017-09-30T16:54:17.027Z,17.98
2017-09-30T16:56:44.624Z,15.18
2017-09-30T16:59:12.133Z,14.98
2017-09-30T17:01:39.642Z,17.75
2017-09-30T17:04:07.396Z,16.02
2017-09-30T17:06:34.947Z,15.38
2017-09-30T17:09:03.240Z,15.05
2017-09-30T17:11:30.782Z,14.80
2017-09-30T17:13:58.320Z,15.70
2017-09-30T17:16:26.635Z,14.80
2017-09-30T17:18:54.160Z,15.23
2017-09-30T17:21:21.702Z,21.00
2017-09-30T17:23:49.222Z,19.20
2017-09-30T17:26:16.751Z,15.48
2017-09-30T17:28:44.263Z,16.90
2017-09-30T17:31:11.807Z,16.77
2017-09-30T17:33:39.357Z,15.23
2017-09-30T17:36:06.914Z,14.52
2017-09-30T17:38:34.463Z,17.15
2017-09-30T17:41:01.999Z,18.37
2017-09-30T17:43:30.323Z,17.23
2017-09-30T17:45:57.841Z,15.70
2017-09-30T17:48:25.369Z,17.10
2017-09-30T17:50:52.917Z,15.35
2017-09-30T17:53:20.438Z,17.20
2017-09-30T17:55:47.938Z,16.27
2017-09-30T17:58:15.473Z,16.67
2017-09-30T18:00:43.052Z,19.05
2017-09-30T18:03:10.588Z,16.87
2017-09-30T18:05:38.114Z,17.65
2017-09-30T18:08:05.625Z,20.40
2017-09-30T18:10:33.144Z,18.08
2017-09-30T18:13:01.443Z,18.48
2017-09-30T18:15:28.960Z,16.30
2017-09-30T18:17:56.477Z,14.10
2017-09-30T18:20:23.995Z,17.17
2017-09-30T18:22:52.266Z,16.23
2017-09-30T18:25:20.540Z,16.70
2017-09-30T18:27:48.824Z,17.02
2017-09-30T18:30:17.123Z,16.98
2017-09-30T18:32:44.656Z,69.43
2017-09-30T18:35:12.193Z,16.60
2017-09-30T18:37:39.757Z,16.62
2017-09-30T18:40:07.280Z,15.93
2017-09-30T18:42:34.807Z,14.00
2017-09-30T18:45:03.102Z,17.55
2017-09-30T18:47:30.618Z,18.67
2017-09-30T18:49:58.133Z,14.02
2017-09-30T18:52:25.653Z,13.05
2017-09-30T18:54:53.931Z,15.00
2017-09-30T18:57:22.192Z,15.55
2017-09-30T18:59:49.718Z,14.80
2017-09-30T19:02:17.235Z,16.35
2017-09-30T19:04:44.772Z,15.55
2017-09-30T19:07:13.067Z,18.23
2017-09-30T19:09:41.349Z,15.50
2017-09-30T19:12:09.616Z,14.27
2017-09-30T19:14:37.884Z,16.65
2017-09-30T19:17:05.415Z,14.25
2017-09-30T19:19:32.916Z,15.45
2017-09-30T19:22:00.448Z,13.48
2017-09-30T19:24:27.965Z,14.15
2017-09-30T19:26:55.502Z,13.15
2017-09-30T19:29:23.945Z,15.68
2017-09-30T19:31:51.463Z,14.27
2017-09-30T19:34:18.959Z,13.25
2017-09-30T19:36:46.593Z,13.32
2017-09-30T19:39:14.930Z,14.55
2017-09-30T19:41:43.219Z,14.02
2017-09-30T19:44:10.744Z,14.98
2017-09-30T19:46:38.959Z,14.55
2017-09-30T19:49:06.723Z,16.45
2017-09-30T19:51:34.256Z,12.70
2017-09-30T19:54:02.550Z,17.05
2017-09-30T19:56:30.847Z,18.35
2017-09-30T19:58:58.362Z,17.90
2017-09-30T20:01:25.883Z,18.33
2017-09-30T20:03:53.399Z,15.10
2017-09-30T20:06:21.715Z,17.30
2017-09-30T20:08:49.229Z,14.95
2017-09-30T20:11:16.735Z,14.77
2017-09-30T20:13:44.270Z,15.40
2017-09-30T20:16:11.788Z,17.30
2017-09-30T20:18:39.304Z,14.95
2017-09-30T20:21:06.904Z,13.15
2017-09-30T20:23:34.494Z,13.40
2017-09-30T20:26:02.067Z,18.30
2017-09-30T20:28:29.609Z,13.02
2017-09-30T20:30:57.908Z,14.50
2017-09-30T20:33:25.437Z,18.45
2017-09-30T20:35:52.946Z,16.15
2017-09-30T20:38:20.481Z,14.07
2017-09-30T20:40:48.070Z,16.42
2017-09-30T20:43:15.589Z,14.15
2017-09-30T20:45:43.892Z,14.43
2017-09-30T20:48:11.396Z,15.18
2017-09-30T20:50:38.904Z,14.50
2017-09-30T20:53:06.409Z,14.57
2017-09-30T20:55:33.924Z,17.15
2017-09-30T20:58:01.450Z,22.48
2017-09-30T21:00:29.009Z,15.38
2017-09-30T21:02:56.564Z,14.23
2017-09-30T21:05:24.093Z,15.48
2017-09-30T21:07:51.630Z,19.35
2017-09-30T21:10:19.235Z,13.65
2017-09-30T21:12:46.764Z,14.60
2017-09-30T21:15:14.300Z,16.75
2017-09-30T21:17:41.841Z,14.38
2017-09-30T21:20:10.137Z,15.55
2017-09-30T21:22:37.664Z,15.43
2017-09-30T21:25:05.183Z,14.38
2017-09-30T21:27:32.729Z,17.10
2017-09-30T21:30:00.260Z,16.80
2017-09-30T21:32:28.527Z,15.25
2017-09-30T21:34:56.060Z,16.20
2017-09-30T21:37:23.561Z,15.38
2017-09-30T21:39:51.856Z,15.43
2017-09-30T21:42:19.400Z,18.10
2017-09-30T21:44:46.949Z,21.58
2017-09-30T21:47:15.254Z,15.80
2017-09-30T21:49:42.794Z,19.05
2017-09-30T21:52:10.324Z,16.23
2017-09-30T21:54:38.131Z,19.15
2017-09-30T21:57:05.656Z,15.30
2017-09-30T21:59:33.263Z,15.88
2017-09-30T22:02:00.793Z,19.77
2017-09-30T22:04:29.066Z,15.98
2017-09-30T22:06:57.356Z,16.15
2017-09-30T22:09:25.692Z,15.80
2017-09-30T22:11:53.196Z,18.40
2017-09-30T22:14:20.810Z,23.50
2017-09-30T22:16:48.330Z,16.87
2017-09-30T22:19:15.890Z,14.85
2017-09-30T22:21:43.412Z,16.20
2017-09-30T22:24:10.922Z,14.45
2017-09-30T22:26:38.441Z,22.48
2017-09-30T22:29:06.740Z,15.10
2017-09-30T22:31:34.250Z,14.63
2017-09-30T22:34:01.807Z,15.50
2017-09-30T22:36:29.333Z,14.90
2017-09-30T22:38:56.854Z,13.95
2017-09-30T22:41:24.343Z,15.73
2017-09-30T22:43:51.876Z,15.93
2017-09-30T22:46:20.143Z,16.73
2017-09-30T22:48:48.452Z,25.60
2017-09-30T22:51:15.968Z,17.85
2017-09-30T22:53:43.543Z,14.10
2017-09-30T22:56:11.224Z,17.33
2017-09-30T22:58:38.765Z,14.68
2017-09-30T23:01:07.074Z,19.55
2017-09-30T23:03:34.596Z,18.23
2017-09-30T23:06:02.111Z,15.60
2017-09-30T23:08:29.640Z,15.38
2017-09-30T23:10:57.187Z,17.30
2017-09-30T23:13:25.491Z,15.15
2017-09-30T23:15:52.996Z,18.42
2017-09-30T23:18:20.519Z,16.48
2017-09-30T23:20:48.076Z,15.35
2017-09-30T23:23:15.642Z,16.70
2017-09-30T23:25:43.177Z,15.50
2017-09-30T23:28:11.461Z,15.98
2017-09-30T23:30:38.974Z,15.32
2017-09-30T23:33:06.487Z,16.95
2017-09-30T23:35:34.011Z,18.92
2017-09-30T23:38:02.287Z,16.05
2017-09-30T23:40:30.590Z,14.90
2017-09-30T23:42:58.120Z,13.95
2017-09-30T23:45:25.641Z,17.00
2017-09-30T23:47:53.156Z,14.75
2017-09-30T23:50:21.467Z,14.98
2017-09-30T23:52:48.993Z,15.70
2017-09-30T23:55:16.492Z,15.07
2017-09-30T23:57:44.012Z,14.80
